Terminal Aerodrome Forecast
Issued by NWS Riverton, WY

Home | Current Version | Previous Version | Text Only | Print | Product List | Glossary On
Versions: 1 2 3 4 5 6 7 8 9 10 11 12
395
FTUS45 KRIW 270528
TAFRIW
TAF
KRIW 270528Z 2706/2806 21008KT P6SM SCT120 SCT150
     FM271100 29009KT P6SM SCT110 SCT150
     FM271830 29020G30KT P6SM SCT100 BKN150
     FM280100 36015KT P6SM SCT100 SCT140=

USA.gov is the U.S. government's official web portal to all federal, state and local government web resources and services.